createdAt,value
2019-02-20T00:01:42.246Z,92.00
2019-02-20T00:04:42.194Z,92.20
2019-02-20T00:07:50.855Z,92.20
2019-02-20T00:10:51.951Z,91.90
2019-02-20T00:13:53.545Z,91.50
2019-02-20T00:16:55.459Z,91.50
2019-02-20T00:19:56.943Z,91.40
2019-02-20T00:22:58.375Z,91.20
2019-02-20T00:29:06.661Z,91.10
2019-02-20T00:32:07.542Z,91.00
2019-02-20T00:35:08.539Z,91.00
2019-02-20T00:38:10.147Z,91.00
2019-02-20T00:41:11.511Z,91.00
2019-02-20T00:44:31.783Z,91.10
2019-02-20T00:47:52.474Z,91.30
2019-02-20T00:51:00.418Z,91.20
2019-02-20T00:54:03.962Z,91.10
2019-02-20T00:57:11.231Z,91.10
2019-02-20T01:00:11.860Z,91.10
2019-02-20T01:03:13.110Z,91.30
2019-02-20T01:06:14.159Z,91.10
2019-02-20T01:09:14.148Z,90.90
2019-02-20T01:15:48.818Z,90.90
2019-02-20T01:18:50.408Z,91.00
2019-02-20T01:21:51.839Z,91.00
2019-02-20T01:24:52.766Z,90.90
2019-02-20T01:31:00.910Z,91.00
2019-02-20T01:34:02.284Z,90.90
2019-02-20T01:37:04.031Z,91.00
2019-02-20T01:40:05.062Z,91.00
2019-02-20T01:43:06.518Z,91.20
2019-02-20T01:46:08.143Z,91.10
2019-02-20T01:49:08.407Z,91.10
2019-02-20T01:52:17.303Z,91.20
2019-02-20T01:55:18.890Z,91.30
2019-02-20T02:01:27.373Z,91.10
2019-02-20T02:04:28.367Z,91.20
2019-02-20T02:07:29.683Z,91.00
2019-02-20T02:13:33.765Z,91.10
2019-02-20T02:16:42.495Z,91.10
2019-02-20T02:19:43.974Z,91.00
2019-02-20T02:22:44.887Z,91.10
2019-02-20T02:25:46.259Z,91.00
2019-02-20T02:31:54.663Z,91.30
2019-02-20T02:34:55.555Z,91.20
2019-02-20T02:37:57.226Z,91.20
2019-02-20T02:40:59.027Z,91.20
2019-02-20T02:44:00.111Z,91.20
2019-02-20T02:47:01.655Z,91.50
2019-02-20T02:50:01.846Z,91.30
2019-02-20T02:53:10.515Z,91.40
2019-02-20T02:56:11.968Z,91.40
2019-02-20T03:02:20.016Z,91.60
2019-02-20T03:05:21.320Z,91.40
2019-02-20T03:08:22.728Z,91.60
2019-02-20T03:11:23.875Z,91.40
2019-02-20T03:14:25.621Z,91.60
2019-02-20T03:17:27.283Z,91.70
2019-02-20T03:20:28.323Z,92.10
2019-02-20T03:23:29.410Z,92.10
2019-02-20T03:26:30.522Z,92.00
2019-02-20T03:32:39.195Z,91.50
2019-02-20T03:35:40.562Z,91.50
2019-02-20T03:38:41.763Z,91.50
2019-02-20T03:41:43.535Z,91.70
2019-02-20T03:44:33.162Z,92.20
2019-02-20T03:47:41.686Z,92.30
2019-02-20T03:50:42.982Z,92.40
2019-02-20T03:53:51.561Z,92.50
2019-02-20T03:56:47.463Z,93.00
2019-02-20T03:59:54.825Z,92.70
2019-02-20T04:02:56.299Z,92.70
2019-02-20T04:05:57.906Z,92.60
2019-02-20T04:08:59.055Z,92.40
2019-02-20T04:12:00.076Z,92.90
2019-02-20T04:15:01.859Z,92.80
2019-02-20T04:18:03.462Z,92.70
2019-02-20T04:21:04.956Z,92.60
2019-02-20T04:24:06.749Z,92.30
2019-02-20T04:27:08.464Z,92.20
2019-02-20T04:33:16.428Z,92.80
2019-02-20T04:36:17.506Z,92.70
2019-02-20T04:39:19.291Z,93.00
2019-02-20T04:42:20.608Z,92.80
2019-02-20T04:45:22.382Z,92.60
2019-02-20T04:48:24.272Z,92.50
2019-02-20T04:51:25.694Z,92.60
2019-02-20T04:54:26.851Z,92.70
2019-02-20T04:57:33.198Z,92.60
2019-02-20T05:03:41.314Z,92.90
2019-02-20T05:06:43.267Z,92.90
2019-02-20T05:09:44.143Z,93.20
2019-02-20T05:12:45.347Z,93.00
2019-02-20T05:15:46.932Z,92.70
2019-02-20T05:18:47.791Z,92.60
2019-02-20T05:21:49.481Z,92.80
2019-02-20T05:24:51.392Z,92.90
2019-02-20T05:27:52.473Z,92.80
2019-02-20T05:34:01.347Z,92.60
2019-02-20T05:37:02.806Z,92.90
2019-02-20T05:40:02.633Z,93.10
2019-02-20T05:43:11.168Z,93.40
2019-02-20T05:46:00.637Z,93.30
2019-02-20T05:49:09.579Z,93.30
2019-02-20T05:52:11.310Z,93.20
2019-02-20T05:55:12.355Z,93.40
2019-02-20T05:58:14.021Z,93.50
2019-02-20T06:04:22.716Z,93.70
2019-02-20T06:07:25.616Z,93.70
2019-02-20T06:10:27.125Z,93.70
2019-02-20T06:13:28.529Z,93.60
2019-02-20T06:16:30.112Z,93.40
2019-02-20T06:19:31.328Z,93.80
2019-02-20T06:22:33.330Z,94.00
2019-02-20T06:25:34.233Z,93.90
2019-02-20T06:28:35.830Z,94.20
2019-02-20T06:31:43.302Z,94.60
2019-02-20T06:34:45.163Z,94.50
2019-02-20T06:37:44.983Z,94.30
2019-02-20T06:40:46.636Z,93.90
2019-02-20T06:43:48.130Z,93.90
2019-02-20T06:46:49.318Z,94.00
2019-02-20T06:49:50.198Z,94.10
2019-02-20T06:52:51.700Z,94.60
2019-02-20T06:55:53.074Z,94.40
2019-02-20T06:58:54.302Z,94.40
2019-02-20T07:02:01.545Z,94.40
2019-02-20T07:05:07.474Z,94.50
2019-02-20T07:08:26.491Z,94.50
2019-02-20T07:11:54.185Z,94.60
2019-02-20T07:15:21.980Z,94.70
2019-02-20T07:18:49.910Z,94.90
2019-02-20T07:21:51.443Z,95.00
2019-02-20T07:24:52.606Z,95.10
2019-02-20T07:27:54.428Z,95.10
2019-02-20T07:37:10.198Z,95.10
2019-02-20T07:40:11.967Z,95.00
2019-02-20T07:43:13.890Z,95.10
2019-02-20T07:46:14.070Z,95.00
2019-02-20T07:49:23.168Z,95.10
2019-02-20T07:52:13.026Z,95.30
2019-02-20T07:55:22.183Z,95.50
2019-02-20T07:58:24.251Z,95.50
2019-02-20T08:01:26.010Z,95.50
2019-02-20T08:07:33.994Z,95.50
2019-02-20T08:10:36.059Z,95.50
2019-02-20T08:13:39.532Z,95.50
2019-02-20T08:16:29.354Z,95.50
2019-02-20T08:19:38.373Z,95.10
2019-02-20T08:22:39.550Z,95.20
2019-02-20T08:25:40.789Z,95.00
2019-02-20T08:28:42.258Z,94.80
2019-02-20T08:31:44.154Z,94.70
2019-02-20T08:37:53.123Z,94.90
2019-02-20T08:40:54.108Z,94.90
2019-02-20T08:43:55.447Z,94.80
2019-02-20T08:46:56.582Z,94.60
2019-02-20T08:49:58.796Z,94.60
2019-02-20T08:53:00.979Z,94.60
2019-02-20T08:56:02.354Z,94.80
2019-02-20T08:59:03.713Z,94.50
2019-02-20T09:02:05.680Z,94.90
2019-02-20T09:08:13.543Z,94.70
2019-02-20T09:11:14.751Z,94.60
2019-02-20T09:14:15.731Z,94.40
2019-02-20T09:17:17.095Z,94.50
2019-02-20T09:20:22.746Z,94.30
2019-02-20T09:23:12.335Z,94.20
2019-02-20T09:29:28.171Z,93.50
2019-02-20T09:32:29.859Z,93.40
2019-02-20T09:38:37.866Z,93.20
2019-02-20T09:41:27.486Z,92.90
2019-02-20T09:44:17.018Z,92.90
2019-02-20T09:47:06.550Z,92.90
2019-02-20T09:50:08.151Z,92.90
2019-02-20T09:53:09.325Z,92.80
2019-02-20T09:56:10.448Z,92.60
2019-02-20T09:59:11.946Z,92.60
2019-02-20T10:02:13.567Z,92.40
2019-02-20T10:05:14.636Z,92.20
2019-02-20T10:08:16.174Z,92.10
2019-02-20T10:11:18.043Z,92.00
2019-02-20T10:14:19.929Z,91.90
2019-02-20T10:17:21.120Z,91.80
2019-02-20T10:20:23.854Z,91.50
2019-02-20T10:23:25.743Z,91.00
2019-02-20T10:26:15.523Z,90.90
2019-02-20T10:29:24.544Z,90.80
2019-02-20T10:32:25.683Z,90.20
2019-02-20T10:35:27.041Z,89.10
2019-02-20T10:38:28.395Z,88.60
2019-02-20T10:41:29.566Z,86.20
2019-02-20T10:44:31.198Z,86.70
2019-02-20T10:47:32.518Z,86.10
2019-02-20T10:50:33.726Z,85.40
2019-02-20T10:53:34.967Z,84.70
2019-02-20T10:56:35.071Z,83.80
2019-02-20T11:03:10.541Z,83.60
2019-02-20T11:06:18.322Z,84.50
2019-02-20T11:09:19.617Z,85.20
2019-02-20T11:12:20.635Z,85.40
2019-02-20T11:15:22.428Z,85.10
2019-02-20T11:18:23.337Z,84.60
2019-02-20T11:21:24.571Z,83.30
2019-02-20T11:24:26.012Z,84.00
2019-02-20T11:27:27.087Z,82.00
2019-02-20T11:30:28.407Z,81.00
2019-02-20T11:33:18.024Z,79.40
2019-02-20T11:39:37.680Z,78.10
2019-02-20T11:42:35.733Z,79.00
2019-02-20T11:45:37.608Z,74.80
2019-02-20T11:48:39.053Z,72.70
2019-02-20T11:51:40.492Z,71.40
2019-02-20T11:54:41.466Z,68.60
2019-02-20T11:57:47.401Z,67.50
2019-02-20T12:00:51.695Z,65.90
2019-02-20T12:03:52.717Z,64.60
2019-02-20T12:10:00.717Z,64.50
2019-02-20T12:13:01.943Z,62.30
2019-02-20T12:16:02.115Z,63.40
2019-02-20T12:19:10.618Z,62.70
2019-02-20T12:22:10.631Z,63.60
2019-02-20T12:25:19.362Z,63.90
2019-02-20T12:28:21.151Z,64.80
2019-02-20T12:31:22.526Z,66.00
2019-02-20T12:34:22.591Z,68.40
2019-02-20T12:40:30.531Z,68.60
2019-02-20T12:43:31.778Z,70.40
2019-02-20T12:46:33.471Z,70.30
2019-02-20T12:49:34.863Z,68.90
2019-02-20T12:52:36.654Z,68.80
2019-02-20T12:55:37.958Z,67.60
2019-02-20T12:58:39.691Z,67.30
2019-02-20T13:01:41.066Z,66.00
2019-02-20T13:04:43.070Z,64.80
2019-02-20T13:07:50.395Z,65.10
2019-02-20T13:10:52.445Z,65.20
2019-02-20T13:13:53.678Z,65.60
2019-02-20T13:16:55.490Z,67.10
2019-02-20T13:20:00.471Z,67.50
2019-02-20T13:23:01.674Z,66.90
2019-02-20T13:26:03.076Z,67.00
2019-02-20T13:29:04.822Z,67.60
2019-02-20T13:32:06.708Z,65.90
2019-02-20T13:35:07.823Z,66.20
2019-02-20T13:41:16.388Z,68.10
2019-02-20T13:44:18.038Z,69.00
2019-02-20T13:47:19.866Z,68.90
2019-02-20T13:50:20.900Z,69.10
2019-02-20T13:53:22.508Z,69.10
2019-02-20T13:56:23.663Z,69.60
2019-02-20T14:02:47.451Z,69.70
2019-02-20T14:05:47.295Z,70.50
2019-02-20T14:12:15.943Z,71.40
2019-02-20T14:15:17.585Z,71.60
2019-02-20T14:18:18.682Z,72.10
2019-02-20T14:21:20.322Z,73.10
2019-02-20T14:24:22.035Z,74.00
2019-02-20T14:27:23.086Z,73.00
2019-02-20T14:30:24.988Z,72.70
2019-02-20T14:33:26.250Z,72.40
2019-02-20T14:36:27.826Z,71.80
2019-02-20T14:42:36.311Z,72.00
2019-02-20T14:45:38.110Z,71.70
2019-02-20T14:48:39.938Z,70.50
2019-02-20T14:51:41.315Z,70.30
2019-02-20T14:54:42.434Z,70.10
2019-02-20T15:00:53.151Z,69.50
2019-02-20T15:03:54.903Z,68.90
2019-02-20T15:06:56.623Z,69.00
2019-02-20T15:10:04.308Z,69.60
2019-02-20T15:13:04.942Z,69.00
2019-02-20T15:16:06.069Z,67.90
2019-02-20T15:19:07.364Z,68.30
2019-02-20T15:22:08.787Z,68.20
2019-02-20T15:25:09.880Z,69.20
2019-02-20T15:31:18.707Z,68.20
2019-02-20T15:34:20.339Z,67.60
2019-02-20T15:37:21.524Z,68.70
2019-02-20T15:40:29.505Z,69.00
2019-02-20T15:43:31.079Z,69.00
2019-02-20T15:46:32.031Z,69.40
2019-02-20T15:49:33.495Z,69.20
2019-02-20T15:52:35.299Z,69.00
2019-02-20T15:55:36.514Z,70.60
2019-02-20T15:58:38.825Z,70.10
2019-02-20T16:01:40.615Z,69.40
2019-02-20T16:04:41.006Z,69.10
2019-02-20T16:07:42.558Z,69.70
2019-02-20T16:13:57.363Z,68.30
2019-02-20T16:16:59.262Z,68.70
2019-02-20T16:20:00.399Z,68.70
2019-02-20T16:23:02.819Z,68.40
2019-02-20T16:26:05.195Z,68.50
2019-02-20T16:29:08.002Z,69.00
2019-02-20T16:32:09.726Z,69.00
2019-02-20T16:35:11.006Z,69.40
2019-02-20T16:38:12.677Z,69.60
2019-02-20T16:44:21.514Z,70.00
2019-02-20T16:47:22.915Z,70.20
2019-02-20T16:50:25.350Z,70.20
2019-02-20T16:53:31.888Z,70.10
2019-02-20T16:56:33.661Z,70.00
2019-02-20T16:59:35.752Z,70.20
2019-02-20T17:02:37.359Z,70.50
2019-02-20T17:05:39.122Z,70.80
2019-02-20T17:08:40.495Z,71.10
2019-02-20T17:11:48.209Z,71.00
2019-02-20T17:14:49.867Z,70.60
2019-02-20T17:17:53.074Z,70.30
2019-02-20T17:20:55.235Z,70.10
2019-02-20T17:23:55.480Z,70.20
2019-02-20T17:30:29.793Z,70.30
2019-02-20T17:33:31.535Z,70.20
2019-02-20T17:36:21.731Z,70.30
2019-02-20T17:49:24.923Z,71.30
2019-02-20T17:52:27.106Z,71.70
2019-02-20T17:55:29.452Z,72.20
2019-02-20T17:58:31.249Z,72.50
2019-02-20T18:01:32.600Z,72.50
2019-02-20T18:04:35.872Z,72.90
2019-02-20T18:07:36.856Z,73.30
2019-02-20T18:10:38.002Z,73.40
2019-02-20T18:16:46.839Z,73.60
2019-02-20T18:19:48.203Z,73.90
2019-02-20T18:22:49.103Z,74.00
2019-02-20T18:25:50.803Z,74.50
2019-02-20T18:32:14.654Z,74.50
2019-02-20T18:35:16.222Z,74.30
2019-02-20T18:38:17.248Z,74.50
2019-02-20T18:41:18.617Z,74.90
2019-02-20T18:47:27.622Z,75.00
2019-02-20T18:50:29.639Z,75.00
2019-02-20T18:53:31.581Z,75.00
2019-02-20T18:56:34.127Z,75.30
2019-02-20T18:59:36.545Z,75.30
2019-02-20T19:06:09.849Z,75.50
2019-02-20T19:09:11.212Z,75.60
2019-02-20T19:12:12.556Z,75.80
2019-02-20T19:15:20.015Z,76.20
2019-02-20T19:18:21.581Z,76.30
2019-02-20T19:21:22.836Z,76.30
2019-02-20T19:24:24.172Z,76.70
2019-02-20T19:27:25.440Z,76.90
2019-02-20T19:30:27.523Z,76.80
2019-02-20T19:33:31.157Z,76.90
2019-02-20T19:36:32.610Z,76.80
2019-02-20T19:39:34.018Z,76.80
2019-02-20T19:42:36.433Z,76.90
2019-02-20T19:45:44.000Z,77.10
2019-02-20T19:48:51.857Z,77.00
2019-02-20T19:55:01.922Z,76.70
2019-02-20T19:58:09.598Z,76.80
2019-02-20T20:04:51.734Z,77.10
2019-02-20T20:07:53.771Z,77.60
2019-02-20T20:10:54.947Z,77.60
2019-02-20T20:13:56.803Z,77.30
2019-02-20T20:20:07.993Z,77.30
2019-02-20T20:27:10.446Z,78.10
2019-02-20T20:33:29.434Z,79.10
2019-02-20T20:36:30.804Z,79.40
2019-02-20T20:39:31.855Z,79.30
2019-02-20T20:42:33.165Z,79.20
2019-02-20T20:45:35.381Z,79.20
2019-02-20T20:48:42.379Z,79.10
2019-02-20T20:51:43.802Z,79.20
2019-02-20T20:54:45.213Z,79.20
2019-02-20T20:57:46.908Z,79.50
2019-02-20T21:03:55.315Z,79.70
2019-02-20T21:06:56.746Z,80.30
2019-02-20T21:09:58.819Z,79.90
2019-02-20T21:13:00.739Z,80.00
2019-02-20T21:16:04.234Z,80.20
2019-02-20T21:19:32.903Z,80.80
2019-02-20T21:22:34.451Z,81.20
2019-02-20T21:25:36.602Z,81.70
2019-02-20T21:28:38.183Z,82.10
2019-02-20T21:31:40.351Z,82.30
2019-02-20T21:34:42.152Z,82.70
2019-02-20T21:37:43.391Z,82.50
2019-02-20T21:40:44.759Z,82.80
2019-02-20T21:43:46.130Z,83.30
2019-02-20T21:46:47.871Z,83.20
2019-02-20T21:49:55.365Z,84.00
2019-02-20T21:52:57.307Z,84.70
2019-02-20T21:55:58.627Z,85.10
2019-02-20T21:58:59.706Z,85.80
2019-02-20T22:02:02.005Z,85.80
2019-02-20T22:08:48.423Z,85.60
2019-02-20T22:11:49.465Z,85.80
2019-02-20T22:14:52.542Z,86.20
2019-02-20T22:17:53.733Z,86.10
2019-02-20T22:21:01.334Z,85.80
2019-02-20T22:24:03.623Z,85.40
2019-02-20T22:27:05.146Z,85.90
2019-02-20T22:30:06.743Z,86.00
2019-02-20T22:33:07.864Z,86.20
2019-02-20T22:36:09.406Z,86.10
2019-02-20T22:39:11.514Z,86.30
2019-02-20T22:42:12.791Z,86.40
2019-02-20T22:45:14.623Z,86.40
2019-02-20T22:48:27.255Z,86.40
2019-02-20T22:55:21.511Z,86.70
2019-02-20T22:58:23.396Z,87.30
2019-02-20T23:01:27.810Z,87.50
2019-02-20T23:04:28.851Z,86.60
2019-02-20T23:07:30.034Z,86.30
2019-02-20T23:10:31.512Z,85.70
2019-02-20T23:13:32.448Z,86.10
2019-02-20T23:16:21.843Z,86.40
2019-02-20T23:19:30.559Z,86.60
2019-02-20T23:25:39.341Z,87.10
2019-02-20T23:28:40.674Z,87.30
2019-02-20T23:31:42.099Z,87.30
2019-02-20T23:34:42.443Z,87.40
2019-02-20T23:37:51.263Z,87.60
2019-02-20T23:40:52.598Z,87.70
2019-02-20T23:43:52.564Z,88.00
2019-02-20T23:50:27.953Z,88.60
2019-02-20T23:56:36.654Z,88.30
2019-02-20T23:59:36.999Z,88.60
